TimeEDT,TemperatureF,Dew PointF,Humidity,Sea Level PressureIn,VisibilityMPH,Wind Direction,Wind SpeedMPH,Gust SpeedMPH,PrecipitationIn,Events,Conditions,WindDirDegrees,DateUTC
12:05 AM,48.2,48.2,100,30.16,2.5,North,9.2,-,N/A,Rain,Light Rain,360,2012-10-09 04:05:00
12:20 AM,48.2,48.2,100,30.16,3.0,North,6.9,-,N/A,,Light Drizzle,350,2012-10-09 04:20:00
12:32 AM,48.2,48.2,100,30.15,2.5,North,8.1,-,N/A,,Light Drizzle,350,2012-10-09 04:32:00
12:50 AM,48.2,48.2,100,30.15,3.0,North,9.2,-,N/A,,Light Drizzle,360,2012-10-09 04:50:00
12:55 AM,48.6,47.8,97,30.15,3.0,North,9.2,-,0.00,,Light Drizzle,360,2012-10-09 04:55:00
1:25 AM,48.2,48.2,100,30.14,4.0,North,9.2,-,N/A,,Overcast,360,2012-10-09 05:25:00
1:55 AM,48.6,47.7,97,30.15,5.0,North,6.9,-,N/A,,Overcast,350,2012-10-09 05:55:00
2:25 AM,48.2,48.2,100,30.14,6.0,North,8.1,-,N/A,,Overcast,360,2012-10-09 06:25:00
2:55 AM,48.6,47.3,95,30.13,8.0,North,8.1,-,N/A,,Overcast,360,2012-10-09 06:55:00
3:24 AM,48.2,48.2,100,30.13,10.0,North,8.1,-,N/A,,Overcast,360,2012-10-09 07:24:00
3:55 AM,48.6,47.3,95,30.12,8.0,North,10.4,-,N/A,,Overcast,360,2012-10-09 07:55:00
4:24 AM,48.2,48.2,100,30.12,5.0,North,6.9,-,N/A,,Overcast,360,2012-10-09 08:24:00
4:55 AM,48.6,47.3,95,30.13,10.0,North,6.9,-,N/A,,Overcast,360,2012-10-09 08:55:00
5:20 AM,48.2,48.2,100,30.13,8.0,North,5.8,-,N/A,,Overcast,360,2012-10-09 09:20:00
5:55 AM,48.6,47.3,95,30.14,8.0,North,10.4,-,N/A,,Overcast,360,2012-10-09 09:55:00
6:10 AM,48.2,48.2,100,30.14,9.0,NNE,9.2,-,N/A,,Overcast,20,2012-10-09 10:10:00
6:55 AM,48.7,47.3,95,30.15,9.0,North,9.2,-,N/A,,Overcast,360,2012-10-09 10:55:00
7:55 AM,48.9,47.3,94,30.16,10.0,North,6.9,-,N/A,,Overcast,360,2012-10-09 11:55:00
8:55 AM,49.3,47.8,95,30.18,10.0,North,9.2,-,N/A,,Overcast,360,2012-10-09 12:55:00
9:55 AM,49.8,48.2,94,30.18,10.0,North,9.2,-,N/A,,Overcast,10,2012-10-09 13:55:00
10:39 AM,50.0,48.2,94,30.18,10.0,North,6.9,-,N/A,,Overcast,10,2012-10-09 14:39:00
10:55 AM,50.7,48.0,90,30.18,10.0,North,10.4,-,N/A,,Overcast,360,2012-10-09 14:55:00
11:14 AM,51.8,48.2,88,30.17,10.0,NNE,8.1,-,N/A,,Overcast,20,2012-10-09 15:14:00
11:55 AM,52.0,48.7,89,30.17,10.0,NNW,8.1,-,N/A,,Overcast,340,2012-10-09 15:55:00
12:24 PM,53.6,50.0,88,30.17,10.0,NNE,8.1,-,N/A,,Overcast,20,2012-10-09 16:24:00
12:55 PM,53.6,49.6,86,30.16,10.0,North,6.9,-,N/A,,Overcast,10,2012-10-09 16:55:00
1:19 PM,55.4,50.0,82,30.15,10.0,NNW,8.1,-,N/A,,Overcast,340,2012-10-09 17:19:00
1:55 PM,55.8,50.5,83,30.13,10.0,NNW,6.9,-,N/A,,Overcast,340,2012-10-09 17:55:00
2:55 PM,55.8,51.3,85,30.12,10.0,North,4.6,-,N/A,,Overcast,350,2012-10-09 18:55:00
2:59 PM,55.4,51.8,88,30.12,10.0,NNE,5.8,-,N/A,,Overcast,20,2012-10-09 18:59:00
3:55 PM,57.0,51.6,82,30.11,10.0,NNW,6.9,-,N/A,,Overcast,330,2012-10-09 19:55:00
4:55 PM,56.7,51.6,83,30.11,10.0,NNW,5.8,-,N/A,,Overcast,340,2012-10-09 20:55:00
5:55 PM,56.3,52.0,85,30.11,10.0,North,4.6,-,N/A,,Overcast,360,2012-10-09 21:55:00
6:09 PM,57.2,51.8,82,30.11,10.0,NNW,3.5,-,N/A,,Overcast,340,2012-10-09 22:09:00
6:34 PM,55.4,51.8,88,30.11,10.0,NNW,2.3,-,N/A,,Overcast,330,2012-10-09 22:34:00
6:55 PM,55.9,52.3,88,30.11,10.0,NNW,2.3,-,N/A,,Overcast,340,2012-10-09 22:55:00
7:24 PM,55.4,53.6,94,30.11,10.0,North,2.3,-,N/A,,Overcast,350,2012-10-09 23:24:00
7:30 PM,55.4,53.6,94,30.11,10.0,NNW,2.3,-,N/A,,Overcast,330,2012-10-09 23:30:00
7:39 PM,55.4,53.6,94,30.11,10.0,NNW,2.3,-,N/A,,Overcast,340,2012-10-09 23:39:00
7:54 PM,55.4,53.6,94,30.11,10.0,NNE,3.5,-,N/A,,Overcast,30,2012-10-09 23:54:00
7:55 PM,55.4,53.1,92,30.11,10.0,NE,3.5,-,N/A,,Overcast,40,2012-10-09 23:55:00
8:14 PM,55.4,53.6,94,30.12,10.0,NNE,3.5,-,N/A,,Overcast,30,2012-10-10 00:14:00
8:24 PM,55.4,53.6,94,30.12,10.0,NNE,2.3,-,N/A,,Overcast,20,2012-10-10 00:24:00
8:29 PM,55.4,53.6,94,30.12,10.0,NNE,2.3,-,N/A,,Overcast,20,2012-10-10 00:29:00
8:44 PM,55.4,53.6,94,30.12,10.0,NNE,2.3,-,N/A,,Overcast,30,2012-10-10 00:44:00
8:55 PM,55.0,52.9,92,30.12,10.0,NNE,2.3,-,N/A,,Overcast,20,2012-10-10 00:55:00
9:23 PM,55.4,53.6,94,30.12,10.0,NNE,2.3,-,N/A,,Overcast,20,2012-10-10 01:23:00
9:43 PM,55.4,53.6,94,30.12,10.0,North,2.3,-,N/A,,Overcast,10,2012-10-10 01:43:00
9:49 PM,55.4,53.6,94,30.12,10.0,NNW,2.3,-,N/A,,Overcast,330,2012-10-10 01:49:00
9:55 PM,55.2,53.1,92,30.13,9.0,North,1.2,-,N/A,,Overcast,360,2012-10-10 01:55:00
9:59 PM,55.4,53.6,94,30.13,9.0,North,1.2,-,N/A,,Overcast,360,2012-10-10 01:59:00
10:14 PM,55.4,53.6,94,30.13,10.0,WNW,2.3,-,N/A,,Overcast,300,2012-10-10 02:14:00
10:38 PM,55.4,53.6,94,30.13,10.0,West,2.3,-,N/A,,Overcast,260,2012-10-10 02:38:00
10:43 PM,55.4,53.6,94,30.13,10.0,West,3.5,-,N/A,,Overcast,280,2012-10-10 02:43:00
10:48 PM,55.4,53.6,94,30.13,10.0,West,3.5,-,N/A,,Overcast,280,2012-10-10 02:48:00
10:55 PM,54.7,53.1,94,30.12,10.0,West,3.5,-,N/A,,Overcast,280,2012-10-10 02:55:00
11:55 PM,54.9,53.2,94,30.12,9.0,West,2.3,-,N/A,,Overcast,260,2012-10-10 03:55:00